createdAt,value
2018-03-03T00:01:12.992Z,63.87
2018-03-03T00:03:43.518Z,63.25
2018-03-03T00:06:13.716Z,61.50
2018-03-03T00:08:44.339Z,58.63
2018-03-03T00:11:14.668Z,60.53
2018-03-03T00:13:45.331Z,61.33
2018-03-03T00:16:15.731Z,61.75
2018-03-03T00:18:45.938Z,61.05
2018-03-03T00:21:16.002Z,59.15
2018-03-03T00:23:46.667Z,61.20
2018-03-03T00:26:17.867Z,60.00
2018-03-03T00:28:48.366Z,61.63
2018-03-03T00:31:19.196Z,60.93
2018-03-03T00:33:49.433Z,62.62
2018-03-03T00:36:20.123Z,61.55
2018-03-03T00:38:50.862Z,58.75
2018-03-03T00:41:21.339Z,60.05
2018-03-03T00:43:51.902Z,59.00
2018-03-03T00:46:23.082Z,57.50
2018-03-03T00:48:53.415Z,55.83
2018-03-03T00:51:23.758Z,57.70
2018-03-03T00:53:53.880Z,60.40
2018-03-03T00:56:24.222Z,62.45
2018-03-03T00:58:55.977Z,63.22
2018-03-03T01:01:27.219Z,61.88
2018-03-03T01:03:59.067Z,61.83
2018-03-03T01:06:29.383Z,59.83
2018-03-03T01:08:59.703Z,61.40
2018-03-03T01:11:29.759Z,58.92
2018-03-03T01:13:59.955Z,60.05
2018-03-03T01:16:30.055Z,63.10
2018-03-03T01:19:00.151Z,60.95
2018-03-03T01:21:30.242Z,63.30
2018-03-03T01:24:00.335Z,61.53
2018-03-03T01:26:30.386Z,60.87
2018-03-03T01:29:00.563Z,64.93
2018-03-03T01:31:30.743Z,63.92
2018-03-03T01:34:00.839Z,65.70
2018-03-03T01:36:31.345Z,61.97
2018-03-03T03:01:05.503Z,61.97
2018-03-03T03:03:35.838Z,66.45
2018-03-03T03:06:06.347Z,65.37
2018-03-03T03:08:36.789Z,64.12
2018-03-03T03:11:07.175Z,65.22
2018-03-03T03:13:38.166Z,62.05
2018-03-03T03:16:08.580Z,60.07
2018-03-03T03:18:39.030Z,61.17
2018-03-03T03:21:10.121Z,62.17
2018-03-03T03:23:41.396Z,61.45
2018-03-03T03:26:11.629Z,61.63
2018-03-03T03:28:42.589Z,65.50
2018-03-03T03:31:13.034Z,63.77
2018-03-03T03:33:43.718Z,66.40
2018-03-03T03:36:13.897Z,64.32
2018-03-03T03:38:44.054Z,63.87
2018-03-03T03:41:15.185Z,75.67
2018-03-03T03:43:45.331Z,72.32
2018-03-03T03:46:15.467Z,71.78
2018-03-03T03:48:46.187Z,66.97
2018-03-03T03:51:16.608Z,67.40
2018-03-03T03:53:46.813Z,64.72
2018-03-03T03:56:17.445Z,66.80
2018-03-03T03:58:47.611Z,65.10
2018-03-03T04:01:18.166Z,71.68
2018-03-03T04:03:48.805Z,68.85
2018-03-03T04:06:19.429Z,68.63
2018-03-03T04:08:49.740Z,60.50
2018-03-03T04:11:20.483Z,64.35
2018-03-03T04:13:50.809Z,63.35
2018-03-03T04:16:21.310Z,67.35
2018-03-03T04:18:52.824Z,75.25
2018-03-03T04:21:23.201Z,73.30
2018-03-03T04:23:53.579Z,73.13
2018-03-03T04:26:25.944Z,70.67
2018-03-03T04:28:56.504Z,73.90
2018-03-03T04:31:27.057Z,74.35
2018-03-03T04:33:58.087Z,73.18
2018-03-03T04:36:28.686Z,70.80
2018-03-03T04:38:59.220Z,67.53
2018-03-03T04:41:29.657Z,69.43
2018-03-03T04:44:00.102Z,68.20
2018-03-03T04:46:31.008Z,68.12
2018-03-03T04:49:02.117Z,68.00
2018-03-03T04:51:32.718Z,78.20
2018-03-03T04:54:03.292Z,76.53
2018-03-03T04:56:33.771Z,74.25
2018-03-03T04:59:04.281Z,68.18
2018-03-03T05:01:34.834Z,68.95
2018-03-03T05:04:05.791Z,70.33
2018-03-03T05:06:36.272Z,66.30
2018-03-03T05:09:06.945Z,64.97
2018-03-03T05:11:37.528Z,67.70
2018-03-03T05:14:09.544Z,66.00
2018-03-03T05:16:40.065Z,62.00
2018-03-03T05:19:12.425Z,64.30
2018-03-03T05:21:44.910Z,60.77
2018-03-03T05:24:16.066Z,58.55
2018-03-03T05:26:46.570Z,61.53
2018-03-03T05:29:17.996Z,64.97
2018-03-03T05:31:50.302Z,59.72
2018-03-03T05:34:21.504Z,60.85
2018-03-03T05:36:55.120Z,59.17
2018-03-03T05:39:25.644Z,57.55
2018-03-03T05:42:01.873Z,57.03
2018-03-03T05:44:43.000Z,58.27
2018-03-03T05:47:14.172Z,55.40
2018-03-03T05:49:44.558Z,55.42
2018-03-03T05:52:16.990Z,57.50
2018-03-03T05:54:48.873Z,57.40
2018-03-03T05:57:19.943Z,56.37
2018-03-03T05:59:50.391Z,53.17
2018-03-03T06:02:22.377Z,52.95
2018-03-03T06:04:52.688Z,52.92
2018-03-03T06:07:22.977Z,50.85
2018-03-03T06:09:54.019Z,49.80
2018-03-03T06:12:24.147Z,48.58
2018-03-03T06:14:55.173Z,49.20
2018-03-03T06:17:25.362Z,51.15
2018-03-03T06:19:55.577Z,48.03
2018-03-03T06:22:25.789Z,50.33
2018-03-03T06:24:56.003Z,51.53
2018-03-03T06:27:26.507Z,46.60
2018-03-03T06:29:57.385Z,50.05
2018-03-03T06:32:27.621Z,50.00
2018-03-03T06:34:58.587Z,51.03
2018-03-03T06:37:28.806Z,49.78
2018-03-03T06:39:59.834Z,50.00
2018-03-03T06:42:31.058Z,48.60
2018-03-03T08:13:30.864Z,34.97
2018-03-03T08:16:01.120Z,34.90
2018-03-03T08:18:32.144Z,35.05
2018-03-03T08:21:02.515Z,37.30
2018-03-03T08:23:32.841Z,40.22
2018-03-03T08:26:26.987Z,40.78
2018-03-03T08:28:58.743Z,35.90
2018-03-03T08:31:29.289Z,36.05
2018-03-03T08:34:00.517Z,33.67
2018-03-03T08:36:32.976Z,33.10
2018-03-03T08:39:12.717Z,34.80
2018-03-03T08:41:52.700Z,32.53
2018-03-03T08:44:23.140Z,31.73
2018-03-03T08:50:40.576Z,33.47
2018-03-03T08:53:11.039Z,30.42
2018-03-03T08:55:41.426Z,28.65
2018-03-03T08:58:13.488Z,28.40
2018-03-03T09:00:45.342Z,27.80
2018-03-03T09:03:15.667Z,26.40
2018-03-03T09:05:46.535Z,26.05
2018-03-03T09:08:18.129Z,24.23
2018-03-03T09:10:48.297Z,24.55
2018-03-03T09:13:20.650Z,24.58
2018-03-03T09:15:55.530Z,26.73
2018-03-03T09:18:27.596Z,24.00
2018-03-03T09:20:58.132Z,24.08
2018-03-03T09:23:28.230Z,23.38
2018-03-03T09:26:00.512Z,24.90
2018-03-03T09:28:31.743Z,24.30
2018-03-03T09:31:01.899Z,21.85
2018-03-03T09:33:32.832Z,20.90
2018-03-03T09:36:03.557Z,21.12
2018-03-03T09:38:38.048Z,18.10
2018-03-03T09:42:01.429Z,20.95
2018-03-03T09:44:42.171Z,22.37
2018-03-03T09:47:14.065Z,22.95
2018-03-03T09:49:44.676Z,26.58
2018-03-03T09:52:15.898Z,28.23
2018-03-03T10:00:50.259Z,31.20
2018-03-03T10:03:20.627Z,33.38
2018-03-03T10:08:21.655Z,32.47
2018-03-03T10:11:18.788Z,30.48
2018-03-03T10:13:52.280Z,32.73
2018-03-03T10:16:25.297Z,31.87
2018-03-03T10:18:56.897Z,31.37
2018-03-03T10:21:27.222Z,34.30
2018-03-03T10:23:57.892Z,39.72
2018-03-03T10:26:29.865Z,37.97
2018-03-03T10:32:49.074Z,34.55
2018-03-03T10:35:20.594Z,34.92
2018-03-03T10:38:42.620Z,34.08
2018-03-03T10:41:20.396Z,36.15
2018-03-03T10:43:54.780Z,34.00
2018-03-03T10:46:40.244Z,31.98
2018-03-03T10:49:12.073Z,33.23
2018-03-03T10:51:44.326Z,31.40
2018-03-03T10:54:15.955Z,30.62
2018-03-03T10:56:46.711Z,30.77
2018-03-03T10:59:18.365Z,31.20
2018-03-03T11:05:27.782Z,31.10
2018-03-03T11:08:20.068Z,31.83
2018-03-03T11:10:52.751Z,34.20
2018-03-03T11:13:25.638Z,32.85
2018-03-03T11:15:56.275Z,32.30
2018-03-03T11:21:09.060Z,37.33
2018-03-03T11:23:45.597Z,39.65
2018-03-03T11:26:17.373Z,37.47
2018-03-03T11:28:50.070Z,42.42
2018-03-03T11:31:22.259Z,44.55
2018-03-03T11:33:54.984Z,42.38
2018-03-03T11:36:27.164Z,40.78
2018-03-03T11:39:14.261Z,40.45
2018-03-03T11:41:45.304Z,39.00
2018-03-03T11:44:16.350Z,39.72
2018-03-03T11:46:47.709Z,39.30
2018-03-03T11:49:24.847Z,38.97
2018-03-03T11:51:55.412Z,38.90
2018-03-03T11:54:25.956Z,40.67
2018-03-03T11:56:56.549Z,38.03
2018-03-03T11:59:26.831Z,37.42
2018-03-03T12:05:56.677Z,39.03
2018-03-03T12:08:29.791Z,38.50
2018-03-03T12:11:16.527Z,38.65
2018-03-03T12:13:47.633Z,41.42
2018-03-03T12:16:20.740Z,42.97
2018-03-03T12:19:01.204Z,38.95
2018-03-03T12:21:40.607Z,40.63
2018-03-03T12:24:13.397Z,36.50
2018-03-03T12:26:56.089Z,38.00
2018-03-03T12:29:29.159Z,37.20
2018-03-03T12:35:08.011Z,35.28
2018-03-03T12:37:40.257Z,34.38
2018-03-03T12:40:12.830Z,31.73
2018-03-03T12:42:43.013Z,30.37
2018-03-03T12:45:17.756Z,33.90
2018-03-03T12:47:55.053Z,33.85
2018-03-03T12:51:02.635Z,33.97
2018-03-03T12:54:25.214Z,38.08
2018-03-03T12:56:55.758Z,41.63
2018-03-03T12:59:36.885Z,42.30
2018-03-03T13:02:08.320Z,41.28
2018-03-03T13:04:39.330Z,41.28
2018-03-03T13:07:15.456Z,39.70
2018-03-03T13:09:49.364Z,40.33
2018-03-03T13:12:21.239Z,39.75
2018-03-03T13:14:53.117Z,40.97
2018-03-03T13:17:57.295Z,39.58
2018-03-03T13:20:32.373Z,40.17
2018-03-03T13:26:05.885Z,40.33
2018-03-03T13:28:43.031Z,41.75
2018-03-03T13:31:16.131Z,41.37
2018-03-03T13:33:56.506Z,41.47
2018-03-03T13:36:49.904Z,44.65
2018-03-03T13:42:36.717Z,42.55
2018-03-03T13:48:47.501Z,42.28
2018-03-03T13:51:40.069Z,43.40
2018-03-03T13:54:33.031Z,44.13
2018-03-03T13:57:08.832Z,45.03
2018-03-03T13:59:40.909Z,42.83
2018-03-03T14:02:12.102Z,44.42
2018-03-03T14:04:44.349Z,46.35
2018-03-03T14:07:16.045Z,44.22
2018-03-03T14:09:48.830Z,44.00
2018-03-03T14:16:16.642Z,46.28
2018-03-03T14:18:50.543Z,44.67
2018-03-03T14:21:21.068Z,47.03
2018-03-03T14:23:52.248Z,48.65
2018-03-03T14:26:45.301Z,47.10
2018-03-03T14:29:29.548Z,47.05
2018-03-03T14:32:11.442Z,49.75
2018-03-03T14:34:50.320Z,49.53
2018-03-03T14:37:22.273Z,48.13
2018-03-03T14:39:53.411Z,49.58
2018-03-03T14:42:36.869Z,52.03
2018-03-03T14:45:14.322Z,46.50
2018-03-03T14:47:45.874Z,48.80
2018-03-03T14:50:17.444Z,49.17
2018-03-03T14:52:48.711Z,49.78
2018-03-03T14:58:07.188Z,50.55
2018-03-03T15:00:45.627Z,48.92
2018-03-03T15:03:17.655Z,49.03
2018-03-03T15:05:55.426Z,50.17
2018-03-03T15:08:33.372Z,49.47
2018-03-03T15:11:09.786Z,49.60
2018-03-03T15:13:41.247Z,50.87
2018-03-03T15:16:49.514Z,50.15
2018-03-03T15:19:24.686Z,50.30
2018-03-03T15:21:55.103Z,53.17
2018-03-03T15:24:58.776Z,50.00
2018-03-03T15:27:29.310Z,47.03
2018-03-03T15:29:59.878Z,48.80
2018-03-03T15:32:30.569Z,46.47
2018-03-03T15:35:01.615Z,46.83
2018-03-03T15:37:32.283Z,49.00
2018-03-03T15:40:04.719Z,48.63
2018-03-03T15:42:35.955Z,49.17
2018-03-03T15:52:18.957Z,49.00
2018-03-03T15:54:49.555Z,49.15
2018-03-03T15:57:32.772Z,49.10
2018-03-03T16:00:03.587Z,45.55
2018-03-03T16:02:47.854Z,44.75
2018-03-03T16:05:19.485Z,46.10
2018-03-03T16:07:51.232Z,47.00
2018-03-03T16:10:31.660Z,47.10
2018-03-03T16:13:04.623Z,46.63
2018-03-03T16:15:41.078Z,48.42
2018-03-03T16:18:19.309Z,46.63
2018-03-03T16:20:51.792Z,46.58
2018-03-03T16:24:50.366Z,45.90
2018-03-03T16:27:24.616Z,45.88
2018-03-03T16:29:56.564Z,47.25
2018-03-03T16:32:33.079Z,44.75
2018-03-03T16:35:52.280Z,45.80
2018-03-03T16:38:23.496Z,46.17
2018-03-03T16:40:55.210Z,46.90
2018-03-03T16:43:28.475Z,46.50
2018-03-03T16:45:59.711Z,45.20
2018-03-03T16:48:32.614Z,45.88
2018-03-03T16:51:03.829Z,45.33
2018-03-03T16:53:44.032Z,46.55
2018-03-03T16:56:19.083Z,45.72
2018-03-03T16:58:52.046Z,45.50
2018-03-03T17:01:22.949Z,46.78
2018-03-03T17:03:59.155Z,45.28
2018-03-03T17:06:32.623Z,47.92
2018-03-03T17:09:03.915Z,46.13
2018-03-03T17:11:37.945Z,45.42
2018-03-03T17:14:08.679Z,46.17
2018-03-03T17:16:41.369Z,49.77
2018-03-03T17:19:22.839Z,46.35
2018-03-03T17:21:53.661Z,45.17
2018-03-03T17:24:25.128Z,44.05
2018-03-03T17:26:55.865Z,43.60
2018-03-03T17:29:28.368Z,44.08
2018-03-03T17:32:22.585Z,43.58
2018-03-03T17:34:58.214Z,45.92
2018-03-03T17:37:32.641Z,44.20
2018-03-03T17:40:03.842Z,42.60
2018-03-03T17:42:34.432Z,44.40
2018-03-03T17:45:07.000Z,45.92
2018-03-03T17:47:38.955Z,45.67
2018-03-03T17:50:10.019Z,45.85
2018-03-03T17:52:43.978Z,47.42
2018-03-03T17:55:17.446Z,45.35
2018-03-03T17:57:49.182Z,45.47
2018-03-03T18:00:25.154Z,44.78
2018-03-03T18:03:14.918Z,44.97
2018-03-03T18:05:48.517Z,45.42
2018-03-03T18:08:21.018Z,48.00
2018-03-03T18:10:52.321Z,45.35
2018-03-03T18:13:31.260Z,45.88
2018-03-03T18:16:03.827Z,47.43
2018-03-03T18:18:36.051Z,46.13
2018-03-03T18:21:08.623Z,46.35
2018-03-03T18:23:52.383Z,46.55
2018-03-03T18:26:25.773Z,46.72
2018-03-03T18:28:58.156Z,44.70
2018-03-03T18:31:31.452Z,45.78
2018-03-03T18:34:03.408Z,47.45
2018-03-03T18:36:34.612Z,44.53
2018-03-03T18:39:07.501Z,44.10
2018-03-03T18:41:38.914Z,47.05
2018-03-03T18:44:09.403Z,47.17
2018-03-03T18:46:44.881Z,45.53
2018-03-03T18:49:17.129Z,46.30
2018-03-03T18:51:51.714Z,44.95
2018-03-03T18:54:22.636Z,47.22
2018-03-03T18:56:55.029Z,47.08
2018-03-03T18:59:25.496Z,48.00
2018-03-03T19:01:56.225Z,47.60
2018-03-03T19:04:28.944Z,46.28
2018-03-03T19:07:02.514Z,44.97
2018-03-03T19:09:33.311Z,47.25
2018-03-03T19:12:06.688Z,46.13
2018-03-03T19:14:38.998Z,48.08
2018-03-03T19:17:10.644Z,46.78
2018-03-03T19:19:41.944Z,48.40
2018-03-03T19:22:13.381Z,48.20
2018-03-03T19:24:46.158Z,46.83
2018-03-03T19:27:19.750Z,49.75
2018-03-03T19:29:54.726Z,48.60
2018-03-03T19:32:27.734Z,48.57
2018-03-03T19:35:00.881Z,51.25
2018-03-03T19:37:34.208Z,49.45
2018-03-03T19:40:08.678Z,49.37
2018-03-03T19:42:39.818Z,48.20
2018-03-03T19:45:15.708Z,49.75
2018-03-03T19:47:47.801Z,47.80
2018-03-03T19:50:18.993Z,50.45
2018-03-03T19:52:51.414Z,46.80
2018-03-03T19:55:24.188Z,48.70
2018-03-03T19:57:56.729Z,48.67
2018-03-03T20:00:29.914Z,48.67
2018-03-03T20:03:00.999Z,49.47
2018-03-03T20:05:31.895Z,49.77
2018-03-03T20:08:03.472Z,51.03
2018-03-03T20:10:35.038Z,49.33
2018-03-03T20:13:05.479Z,50.25
2018-03-03T20:15:40.034Z,48.05
2018-03-03T20:18:11.433Z,49.80
2018-03-03T20:20:54.644Z,48.03
2018-03-03T20:23:29.880Z,51.08
2018-03-03T20:26:12.919Z,51.30
2018-03-03T20:28:45.426Z,49.38
2018-03-03T20:31:18.726Z,49.05
2018-03-03T20:33:50.055Z,48.42
2018-03-03T20:36:24.328Z,49.10
2018-03-03T20:38:55.390Z,48.40
2018-03-03T20:41:26.488Z,50.35
2018-03-03T20:44:01.545Z,50.25
2018-03-03T20:46:34.642Z,49.40
2018-03-03T20:49:05.785Z,50.75
2018-03-03T20:51:38.649Z,50.92
2018-03-03T20:54:10.766Z,49.25
2018-03-03T20:56:44.185Z,47.88
2018-03-03T20:59:16.570Z,49.63
2018-03-03T21:01:47.869Z,51.35
2018-03-03T21:04:19.266Z,49.58
2018-03-03T21:06:52.390Z,50.08
2018-03-03T21:09:42.602Z,50.17
2018-03-03T21:12:16.642Z,51.42
2018-03-03T21:14:49.792Z,50.00
2018-03-03T21:17:22.692Z,49.35
2018-03-03T21:19:55.287Z,50.43
2018-03-03T21:22:26.712Z,52.03
2018-03-03T21:24:57.976Z,49.92
2018-03-03T21:27:36.987Z,50.53
2018-03-03T21:30:09.644Z,52.58
2018-03-03T21:32:40.320Z,56.20
2018-03-03T21:35:11.070Z,54.00
2018-03-03T21:37:41.815Z,53.72
2018-03-03T21:40:13.347Z,54.22
2018-03-03T21:42:44.253Z,53.28
2018-03-03T21:45:16.682Z,52.65
2018-03-03T21:47:47.722Z,55.03
2018-03-03T21:50:19.397Z,52.28
2018-03-03T21:52:55.096Z,53.85
2018-03-03T21:55:33.498Z,53.17
2018-03-03T21:58:10.710Z,53.60
2018-03-03T22:00:41.917Z,55.30
2018-03-03T22:03:14.185Z,54.23
2018-03-03T22:05:44.670Z,53.97
2018-03-03T22:08:15.777Z,54.00
2018-03-03T22:10:46.459Z,54.05
2018-03-03T22:13:17.017Z,55.80
2018-03-03T22:15:47.535Z,57.33
2018-03-03T22:18:20.502Z,56.03
2018-03-03T22:20:51.273Z,57.38
2018-03-03T22:23:46.546Z,59.97
2018-03-03T22:26:17.395Z,57.00
2018-03-03T22:28:48.127Z,55.40
2018-03-03T22:31:20.128Z,56.03
2018-03-03T22:33:55.783Z,57.62
2018-03-03T22:36:32.449Z,55.53
2018-03-03T22:39:09.942Z,56.60
2018-03-03T22:41:40.870Z,55.03
2018-03-03T22:44:12.308Z,57.42
2018-03-03T22:50:08.660Z,56.72
2018-03-03T22:52:39.948Z,58.15
2018-03-03T22:58:35.034Z,56.17
2018-03-03T23:01:36.708Z,58.65
2018-03-03T23:04:30.457Z,59.35
2018-03-03T23:07:01.837Z,57.50
2018-03-03T23:09:32.225Z,55.63
2018-03-03T23:12:04.061Z,56.20
2018-03-03T23:15:05.792Z,56.70
2018-03-03T23:17:46.721Z,56.35
2018-03-03T23:20:18.383Z,56.47
2018-03-03T23:22:49.922Z,56.83
2018-03-03T23:25:20.400Z,57.40
2018-03-03T23:27:56.157Z,56.50
2018-03-03T23:30:27.941Z,56.13
2018-03-03T23:33:01.295Z,54.72
2018-03-03T23:35:34.707Z,56.13
2018-03-03T23:38:06.201Z,54.58
2018-03-03T23:40:37.325Z,54.15
2018-03-03T23:43:09.004Z,55.30
2018-03-03T23:45:41.552Z,57.65
2018-03-03T23:48:14.160Z,58.20
2018-03-03T23:50:46.895Z,58.40
2018-03-03T23:53:18.343Z,58.28
2018-03-03T23:55:49.562Z,59.67
2018-03-03T23:58:21.600Z,60.22
